地図

経路データ

SID SEASON NUMBER BASIN SUBBASIN NAME ISO_TIME NATURE LAT LON WMO_WIND WMO_PRES WMO_AGENCY TRACK_TYPE DIST2LAND LANDFALL IFLAG USA_AGENCY USA_ATCF_ID USA_LAT USA_LON USA_RECORD USA_STATUS USA_WIND USA_PRES USA_SSHS USA_R34_NE USA_R34_SE USA_R34_SW USA_R34_NW USA_R50_NE USA_R50_SE USA_R50_SW USA_R50_NW USA_R64_NE USA_R64_SE USA_R64_SW USA_R64_NW USA_POCI USA_ROCI USA_RMW USA_EYE TOKYO_LAT TOKYO_LON TOKYO_GRADE TOKYO_WIND TOKYO_PRES TOKYO_R50_DIR TOKYO_R50_LONG TOKYO_R50_SHORT TOKYO_R30_DIR TOKYO_R30_LONG TOKYO_R30_SHORT TOKYO_LAND CMA_LAT CMA_LON CMA_CAT CMA_WIND CMA_PRES HKO_LAT HKO_LON HKO_CAT HKO_WIND HKO_PRES NEWDELHI_LAT NEWDELHI_LON NEWDELHI_GRADE NEWDELHI_WIND NEWDELHI_PRES NEWDELHI_CI NEWDELHI_DP NEWDELHI_POCI REUNION_LAT REUNION_LON REUNION_TYPE REUNION_WIND REUNION_PRES REUNION_TNUM REUNION_CI REUNION_RMW REUNION_R34_NE REUNION_R34_SE REUNION_R34_SW REUNION_R34_NW REUNION_R50_NE REUNION_R50_SE REUNION_R50_SW REUNION_R50_NW REUNION_R64_NE REUNION_R64_SE REUNION_R64_SW REUNION_R64_NW BOM_LAT BOM_LON BOM_TYPE BOM_WIND BOM_PRES BOM_TNUM BOM_CI BOM_RMW BOM_R34_NE BOM_R34_SE BOM_R34_SW BOM_R34_NW BOM_R50_NE BOM_R50_SE BOM_R50_SW BOM_R50_NW BOM_R64_NE BOM_R64_SE BOM_R64_SW BOM_R64_NW BOM_ROCI BOM_POCI BOM_EYE BOM_POS_METHOD BOM_PRES_METHOD NADI_LAT NADI_LON NADI_CAT NADI_WIND NADI_PRES WELLINGTON_LAT WELLINGTON_LON WELLINGTON_WIND WELLINGTON_PRES DS824_LAT DS824_LON DS824_STAGE DS824_WIND DS824_PRES TD9636_LAT TD9636_LON TD9636_STAGE TD9636_WIND TD9636_PRES TD9635_LAT TD9635_LON TD9635_WIND TD9635_PRES TD9635_ROCI NEUMANN_LAT NEUMANN_LON NEUMANN_CLASS NEUMANN_WIND NEUMANN_PRES MLC_LAT MLC_LON MLC_CLASS MLC_WIND MLC_PRES USA_GUST BOM_GUST BOM_GUST_PER REUNION_GUST REUNION_GUST_PER USA_SEAHGT USA_SEARAD_NE USA_SEARAD_SE USA_SEARAD_SW USA_SEARAD_NW STORM_SPEED STORM_DIR
1962287N23287 1962 92 NA NA ELLA 1962-10-14 06:00:00 TS 22.5000 -73.0000 30 hurdat_atl main 145 145 O_____________ hurdat_atl AL051962 22.5000 -73.0000 TD 30 -1 5 17
1962287N23287 1962 92 NA NA ELLA 1962-10-14 09:00:00 TS 22.7600 -72.9125 main 179 179 P_____________ AL051962 22.7600 -72.9125 TD 30 -1 5 20
1962287N23287 1962 92 NA NA ELLA 1962-10-14 12:00:00 TS 23.0000 -72.8000 30 hurdat_atl main 202 202 O_____________ hurdat_atl AL051962 23.0000 -72.8000 TD 30 -1 5 28
1962287N23287 1962 92 NA NA ELLA 1962-10-14 15:00:00 TS 23.2075 -72.6500 main 227 225 P_____________ AL051962 23.2075 -72.6500 TD 30 -1 5 35
1962287N23287 1962 92 NA NA ELLA 1962-10-14 18:00:00 TS 23.4000 -72.5000 30 hurdat_atl main 251 251 O_____________ hurdat_atl AL051962 23.4000 -72.5000 TD 30 -1 5 32
1962287N23287 1962 92 NA NA ELLA 1962-10-14 21:00:00 TS 23.6000 -72.3850 main 275 275 P_____________ AL051962 23.6000 -72.3850 TD 30 -1 4 24
1962287N23287 1962 92 NA NA ELLA 1962-10-15 00:00:00 TS 23.8000 -72.3000 30 hurdat_atl main 299 299 O_____________ hurdat_atl AL051962 23.8000 -72.3000 TD 30 -1 4 18
1962287N23287 1962 92 NA NA ELLA 1962-10-15 03:00:00 TS 23.9925 -72.2424 main 323 323 P_____________ AL051962 23.9925 -72.2424 TD 30 -1 4 12
1962287N23287 1962 92 NA NA ELLA 1962-10-15 06:00:00 TS 24.2000 -72.2000 30 hurdat_atl main 345 345 O_____________ hurdat_atl AL051962 24.2000 -72.2000 TD 30 -1 5 11
1962287N23287 1962 92 NA NA ELLA 1962-10-15 09:00:00 TS 24.4425 -72.1425 main 369 369 P_____________ AL051962 24.4425 -72.1425 TD 32 -1 5 10
1962287N23287 1962 92 NA NA ELLA 1962-10-15 12:00:00 TS 24.7000 -72.1000 35 hurdat_atl main 401 401 O_____________ hurdat_atl AL051962 24.7000 -72.1000 TS 35 0 5 7
1962287N23287 1962 92 NA NA ELLA 1962-10-15 15:00:00 TS 24.9500 -72.0850 main 434 423 P_____________ AL051962 24.9500 -72.0850 TS 37 0 5 2
1962287N23287 1962 92 NA NA ELLA 1962-10-15 18:00:00 TS 25.2000 -72.1000 40 1002 hurdat_atl main 456 456 O_____________ hurdat_atl AL051962 25.2000 -72.1000 TS 40 1002 0 5 355
1962287N23287 1962 92 NA NA ELLA 1962-10-15 21:00:00 TS 25.4575 -72.1201 main 489 489 P_____________ AL051962 25.4575 -72.1201 TS 40 1002 0 5 350
1962287N23287 1962 92 NA NA ELLA 1962-10-16 00:00:00 TS 25.7000 -72.2000 40 1002 hurdat_atl main 509 509 O_____________ hurdat_atl AL051962 25.7000 -72.2000 TS 40 1002 0 5 335
1962287N23287 1962 92 NA NA ELLA 1962-10-16 03:00:00 TS 25.9225 -72.3624 main 528 528 P_____________ AL051962 25.9225 -72.3624 TS 40 1002 0 5 318
1962287N23287 1962 92 NA NA ELLA 1962-10-16 06:00:00 TS 26.1000 -72.6000 40 hurdat_atl main 542 518 I_____________ hurdat_atl AL051962 26.1000 -72.6000 TS 40 1002 0 5 303
1962287N23287 1962 92 NA NA ELLA 1962-10-16 09:00:00 TS 26.2224 -72.8701 main 518 494 P_____________ AL051962 26.2224 -72.8701 TS 42 1002 0 6 290
1962287N23287 1962 92 NA NA ELLA 1962-10-16 12:00:00 TS 26.3000 -73.2000 45 1002 hurdat_atl main 494 457 O_____________ hurdat_atl AL051962 26.3000 -73.2000 TS 45 1002 0 7 281
1962287N23287 1962 92 NA NA ELLA 1962-10-16 15:00:00 TS 26.3500 -73.5852 main 461 425 P_____________ AL051962 26.3500 -73.5852 TS 45 1002 0 7 278
1962287N23287 1962 92 NA NA ELLA 1962-10-16 18:00:00 TS 26.4000 -74.0000 45 1002 hurdat_atl main 425 392 O_____________ hurdat_atl AL051962 26.4000 -74.0000 TS 45 1002 0 8 280
1962287N23287 1962 92 NA NA ELLA 1962-10-16 21:00:00 TS 26.4776 -74.4375 main 392 361 P_____________ AL051962 26.4776 -74.4375 TS 47 998 0 7 286
1962287N23287 1962 92 NA NA ELLA 1962-10-17 00:00:00 TS 26.6000 -74.8000 50 994 hurdat_atl main 361 349 O_____________ hurdat_atl AL051962 26.6000 -74.8000 TS 50 994 0 6 301
1962287N23287 1962 92 NA NA ELLA 1962-10-17 03:00:00 TS 26.7773 -75.0025 main 354 352 P_____________ AL051962 26.7773 -75.0025 TS 50 995 0 5 326
1962287N23287 1962 92 NA NA ELLA 1962-10-17 06:00:00 TS 27.0000 -75.1000 50 997 hurdat_atl main 358 358 O_____________ hurdat_atl AL051962 27.0000 -75.1000 TS 50 997 0 5 343
1962287N23287 1962 92 NA NA ELLA 1962-10-17 09:00:00 TS 27.2275 -75.1577 main 364 364 P_____________ AL051962 27.2275 -75.1577 TS 52 994 0 5 350
1962287N23287 1962 92 NA NA ELLA 1962-10-17 12:00:00 TS 27.5000 -75.2000 55 992 hurdat_atl main 386 386 O_____________ hurdat_atl AL051962 27.5000 -75.2000 TS 55 992 0 6 348
1962287N23287 1962 92 NA NA ELLA 1962-10-17 15:00:00 TS 27.8275 -75.2999 main 403 403 P_____________ AL051962 27.8275 -75.2999 TS 60 990 0 7 346
1962287N23287 1962 92 NA NA ELLA 1962-10-17 18:00:00 TS 28.2000 -75.4000 65 989 hurdat_atl main 431 431 O_____________ hurdat_atl AL051962 28.2000 -75.4000 HU 65 989 1 8 350
1962287N23287 1962 92 NA NA ELLA 1962-10-17 21:00:00 TS 28.6150 -75.4576 main 462 462 P_____________ AL051962 28.6150 -75.4576 HU 65 987 1 8 354
1962287N23287 1962 92 NA NA ELLA 1962-10-18 00:00:00 TS 29.0000 -75.5000 65 hurdat_atl main 489 489 I_____________ hurdat_atl AL051962 29.0000 -75.5000 HU 65 985 1 7 353
1962287N23287 1962 92 NA NA ELLA 1962-10-18 03:00:00 TS 29.2875 -75.5426 main 494 484 P_____________ AL051962 29.2875 -75.5426 HU 65 983 1 5 350
1962287N23287 1962 92 NA NA ELLA 1962-10-18 06:00:00 TS 29.5000 -75.6000 65 981 hurdat_atl main 488 481 O_____________ hurdat_atl AL051962 29.5000 -75.6000 HU 65 981 1 4 341
1962287N23287 1962 92 NA NA ELLA 1962-10-18 09:00:00 TS 29.6575 -75.6926 main 484 475 P_____________ AL051962 29.6575 -75.6926 HU 67 979 1 3 330
1962287N23287 1962 92 NA NA ELLA 1962-10-18 12:00:00 TS 29.8000 -75.8000 70 978 hurdat_atl main 478 470 O_____________ hurdat_atl AL051962 29.8000 -75.8000 HU 70 978 1 4 330
1962287N23287 1962 92 NA NA ELLA 1962-10-18 15:00:00 TS 29.9925 -75.9149 main 470 448 P_____________ AL051962 29.9925 -75.9149 HU 72 975 1 4 337
1962287N23287 1962 92 NA NA ELLA 1962-10-18 18:00:00 TS 30.2000 -76.0000 75 973 hurdat_atl main 448 432 O_____________ hurdat_atl AL051962 30.2000 -76.0000 HU 75 973 1 4 345
1962287N23287 1962 92 NA NA ELLA 1962-10-18 21:00:00 TS 30.4224 -76.0450 main 432 413 P_____________ AL051962 30.4224 -76.0450 HU 75 973 1 4 0
1962287N23287 1962 92 NA NA ELLA 1962-10-19 00:00:00 TS 30.6000 -76.0000 75 974 hurdat_atl main 413 403 O_____________ hurdat_atl AL051962 30.6000 -76.0000 HU 75 974 1 3 30
1962287N23287 1962 92 NA NA ELLA 1962-10-19 03:00:00 TS 30.6797 -75.8750 main 407 407 P_____________ AL051962 30.6797 -75.8750 HU 75 973 1 4 74
1962287N23287 1962 92 NA NA ELLA 1962-10-19 06:00:00 TS 30.7000 -75.6000 75 973 hurdat_atl main 421 421 O_____________ hurdat_atl AL051962 30.7000 -75.6000 HU 75 973 1 6 90
1962287N23287 1962 92 NA NA ELLA 1962-10-19 09:00:00 TS 30.6777 -75.1444 main 448 448 P_____________ AL051962 30.6777 -75.1444 HU 77 971 1 9 90
1962287N23287 1962 92 NA NA ELLA 1962-10-19 12:00:00 TS 30.7000 -74.6000 80 969 hurdat_atl main 478 478 O_____________ hurdat_atl AL051962 30.7000 -74.6000 HU 80 969 1 9 80
1962287N23287 1962 92 NA NA ELLA 1962-10-19 15:00:00 TS 30.8399 -74.0924 main 489 478 P_____________ AL051962 30.8399 -74.0924 HU 85 965 2 9 65
1962287N23287 1962 92 NA NA ELLA 1962-10-19 18:00:00 TS 31.1000 -73.6000 90 962 hurdat_atl main 483 476 O_____________ hurdat_atl AL051962 31.1000 -73.6000 HU 90 962 2 10 53
1962287N23287 1962 92 NA NA ELLA 1962-10-19 21:00:00 TS 31.4473 -73.1421 main 485 470 P_____________ AL051962 31.4473 -73.1421 HU 92 961 2 11 44
1962287N23287 1962 92 NA NA ELLA 1962-10-20 00:00:00 TS 31.9000 -72.7000 95 960 hurdat_atl main 470 462 O_____________ hurdat_atl AL051962 31.9000 -72.7000 HU 95 960 2 12 37
1962287N23287 1962 92 NA NA ELLA 1962-10-20 03:00:00 TS 32.4423 -72.2574 main 462 456 P_____________ AL051962 32.4423 -72.2574 HU 92 961 2 13 35
1962287N23287 1962 92 NA NA ELLA 1962-10-20 06:00:00 TS 33.0000 -71.8000 90 963 hurdat_atl main 460 452 O_____________ hurdat_atl AL051962 33.0000 -71.8000 HU 90 963 2 13 37
1962287N23287 1962 92 NA NA ELLA 1962-10-20 09:00:00 TS 33.4873 -71.3147 main 461 461 P_____________ AL051962 33.4873 -71.3147 HU 90 961 2 12 43
1962287N23287 1962 92 NA NA ELLA 1962-10-20 12:00:00 TS 33.9000 -70.8000 90 960 hurdat_atl main 477 477 O_____________ hurdat_atl AL051962 33.9000 -70.8000 HU 90 960 2 11 49
1962287N23287 1962 92 NA NA ELLA 1962-10-20 15:00:00 TS 34.2143 -70.2937 main 505 505 P_____________ AL051962 34.2143 -70.2937 HU 87 962 2 11 57
1962287N23287 1962 92 NA NA ELLA 1962-10-20 18:00:00 TS 34.5000 -69.7000 85 964 hurdat_atl main 545 545 O_____________ hurdat_atl AL051962 34.5000 -69.7000 HU 85 964 2 13 61
1962287N23287 1962 92 NA NA ELLA 1962-10-20 21:00:00 TS 34.8348 -68.9520 main 598 598 P_____________ AL051962 34.8348 -68.9520 HU 85 2 15 62
1962287N23287 1962 92 NA NA ELLA 1962-10-21 00:00:00 TS 35.2000 -68.1000 85 hurdat_atl main 671 671 O_____________ hurdat_atl AL051962 35.2000 -68.1000 HU 85 2 16 62
1962287N23287 1962 92 NA NA ELLA 1962-10-21 03:00:00 TS 35.5997 -67.2148 main 721 706 P_____________ AL051962 35.5997 -67.2148 HU 82 1 17 61
1962287N23287 1962 92 NA NA ELLA 1962-10-21 06:00:00 TS 36.0000 -66.3000 80 hurdat_atl main 710 705 O_____________ hurdat_atl AL051962 36.0000 -66.3000 HU 80 1 16 63
1962287N23287 1962 92 NA NA ELLA 1962-10-21 09:00:00 TS 36.3492 -65.4061 main 719 710 P_____________ AL051962 36.3492 -65.4061 HU 80 1 16 64
1962287N23287 1962 92 NA NA ELLA 1962-10-21 12:00:00 TS 36.7000 -64.5000 80 961 hurdat_atl main 729 729 O_____________ hurdat_atl AL051962 36.7000 -64.5000 HU 80 961 1 16 66
1962287N23287 1962 92 NA NA ELLA 1962-10-21 15:00:00 TS 37.0004 -63.6112 main 737 702 P_____________ AL051962 37.0004 -63.6112 HU 80 959 1 17 62
1962287N23287 1962 92 NA NA ELLA 1962-10-21 18:00:00 TS 37.5000 -62.6000 80 958 hurdat_atl main 705 670 O_____________ hurdat_atl AL051962 37.5000 -62.6000 HU 80 958 1 22 54
1962287N23287 1962 92 NA NA ELLA 1962-10-21 21:00:00 TS 38.3058 -61.3059 main 668 630 P_____________ AL051962 38.3058 -61.3059 HU 77 1 29 47
1962287N23287 1962 92 NA NA ELLA 1962-10-22 00:00:00 TS 39.5000 -59.9000 75 hurdat_atl main 624 505 O_____________ hurdat_atl AL051962 39.5000 -59.9000 HU 75 1 35 37
1962287N23287 1962 92 NA NA ELLA 1962-10-22 03:00:00 TS 41.1150 -58.5850 main 498 396 P_____________ AL051962 41.1150 -58.5850 HU 70 1 40 31
1962287N23287 1962 92 NA NA ELLA 1962-10-22 06:00:00 TS 42.9000 -57.2000 65 hurdat_atl main 393 256 O_____________ hurdat_atl AL051962 42.9000 -57.2000 HU 65 1 40 31
1962287N23287 1962 92 NA NA ELLA 1962-10-22 09:00:00 TS 44.5475 -55.7638 main 255 86 P_____________ AL051962 44.5475 -55.7638 HU 62 0 38 36
1962287N23287 1962 92 NA NA ELLA 1962-10-22 12:00:00 ET 46.0000 -54.0000 60 hurdat_atl main 73 18 O_____________ hurdat_atl AL051962 46.0000 -54.0000 EX 60 -4 38 50
1962287N23287 1962 92 NA NA ELLA 1962-10-22 15:00:00 ET 47.0150 -51.5374 main 99 99 P_____________ AL051962 47.0150 -51.5374 EX 60 -4 39 60
1962287N23287 1962 92 NA NA ELLA 1962-10-22 18:00:00 ET 48.0000 -49.0000 60 hurdat_atl main 273 273 O_____________ hurdat_atl AL051962 48.0000 -49.0000 EX 60 -4 39 52
1962287N23287 1962 92 NA NA ELLA 1962-10-22 21:00:00 ET 49.4126 -46.8976 main 453 453 P_____________ AL051962 49.4126 -46.8976 EX 60 -4 39 40
1962287N23287 1962 92 NA NA ELLA 1962-10-23 00:00:00 ET 51.0000 -45.1000 60 hurdat_atl main 624 624 O_____________ hurdat_atl AL051962 51.0000 -45.1000 EX 60 -4 39 33
1962287N23287 1962 92 NA NA ELLA 1962-10-23 03:00:00 ET 52.6643 -43.5368 main 790 677 P_____________ AL051962 52.6643 -43.5368 EX 60 -4 36 30
1962287N23287 1962 92 NA NA ELLA 1962-10-23 06:00:00 ET 54.1000 -42.1000 60 hurdat_atl main 667 582 O_____________ hurdat_atl AL051962 54.1000 -42.1000 EX 60 -4 29 36
1962287N23287 1962 92 NA NA ELLA 1962-10-23 09:00:00 ET 54.9899 -40.6122 main 583 558 P_____________ AL051962 54.9899 -40.6122 EX 60 -4 23 52
1962287N23287 1962 92 NA NA ELLA 1962-10-23 12:00:00 ET 55.5000 -39.0000 60 hurdat_atl main 563 561 O_____________ hurdat_atl AL051962 55.5000 -39.0000 EX 60 -4 22 69
1962287N23287 1962 92 NA NA ELLA 1962-10-23 15:00:00 ET 55.7798 -37.0515 main 591 591 P_____________ AL051962 55.7798 -37.0515 EX 57 -4 23 77
1962287N23287 1962 92 NA NA ELLA 1962-10-23 18:00:00 ET 56.0000 -35.0000 55 hurdat_atl main 655 655 O_____________ hurdat_atl AL051962 56.0000 -35.0000 EX 55 -4 23 73
1962287N23287 1962 92 NA NA ELLA 1962-10-23 21:00:00 ET 56.4595 -33.0006 main 707 707 P_____________ AL051962 56.4595 -33.0006 EX 52 -4 24 66
1962287N23287 1962 92 NA NA ELLA 1962-10-24 00:00:00 ET 57.0000 -31.0000 50 hurdat_atl main 775 775 O_____________ hurdat_atl AL051962 57.0000 -31.0000 EX 50 -4 24 65
1962287N23287 1962 92 NA NA ELLA 1962-10-24 03:00:00 ET 57.4969 -28.9946 main 775 683 P_____________ AL051962 57.4969 -28.9946 EX 50 -4 24 65
1962287N23287 1962 92 NA NA ELLA 1962-10-24 06:00:00 ET 58.0000 -27.0000 50 hurdat_atl main 681 601 O_____________ hurdat_atl AL051962 58.0000 -27.0000 EX 50 -4 23 64
1962287N23287 1962 92 NA NA ELLA 1962-10-24 09:00:00 ET 58.4912 -25.1013 main 600 521 P_____________ AL051962 58.4912 -25.1013 EX 50 -4 23 64
1962287N23287 1962 92 NA NA ELLA 1962-10-24 12:00:00 ET 59.0000 -23.0000 50 hurdat_atl main 519 442 O_____________ hurdat_atl AL051962 59.0000 -23.0000 EX 50 -4 26 66
1962287N23287 1962 92 NA NA ELLA 1962-10-24 15:00:00 ET 59.5305 -20.4757 main 441 378 P_____________ AL051962 59.5305 -20.4757 EX 50 -4 29 70
1962287N23287 1962 92 NA NA ELLA 1962-10-24 18:00:00 ET 60.0000 -17.5000 50 hurdat_atl main 381 376 O_____________ hurdat_atl AL051962 60.0000 -17.5000 EX 50 -4 33 77
1962287N23287 1962 92 NA NA ELLA 1962-10-24 21:00:00 ET 60.2969 -13.9535 main 413 327 P_____________ AL051962 60.2969 -13.9535 EX 50 -4 35 82
1962287N23287 1962 92 NA NA ELLA 1962-10-25 00:00:00 ET 60.5000 -10.5000 50 hurdat_atl main 320 266 O_____________ hurdat_atl AL051962 60.5000 -10.5000 EX 50 -4 31 82
1962287N23287 1962 92 NA NA ELLA 1962-10-25 03:00:00 ET 60.7340 -7.77350 main 264 261 P_____________ AL051962 60.7340 -7.77350 EX 50 -4 25 78
1962287N23287 1962 92 NA NA ELLA 1962-10-25 06:00:00 ET 61.0000 -5.50000 50 hurdat_atl main 277 O_____________ hurdat_atl AL051962 61.0000 -5.50000 EX 50 -4 23 76

IBTrACS Databaseについて

本データベースは、米国NOAAが公開する1842年以降の世界の熱帯低気圧のベストトラックデータアーカイブInternational Best Track Archive for Climate Stewardship (IBTrACS)を、ウェブで閲覧しやすい形式に変換したものです。

最終更新日:2021-10-21